createdAt,value
2022-08-02T00:01:03.947Z,96698.69
2022-08-02T00:03:33.860Z,96712.03
2022-08-02T00:06:04.294Z,96698.69
2022-08-02T00:08:33.379Z,96701.19
2022-08-02T00:11:01.605Z,96705.66
2022-08-02T00:13:30.050Z,96604.69
2022-08-02T00:15:58.359Z,96672.31
2022-08-02T00:18:26.602Z,96677.47
2022-08-02T00:20:54.840Z,96654.31
2022-08-02T00:23:25.133Z,96648.84
2022-08-02T00:25:54.898Z,96680.06
2022-08-02T00:28:27.246Z,96700.56
2022-08-02T00:30:57.309Z,96680.69
2022-08-02T00:34:26.938Z,96695.03
2022-08-02T00:36:13.923Z,96652.22
2022-08-02T00:38:43.575Z,96700.19
2022-08-02T00:41:18.994Z,96646.13
2022-08-02T00:43:48.804Z,96668.69
2022-08-02T00:46:18.425Z,96695.28
2022-08-02T00:48:46.835Z,96659.06
2022-08-02T00:51:17.633Z,96611.69
2022-08-02T00:53:47.382Z,96717.00
2022-08-02T00:56:15.633Z,96676.88
2022-08-02T00:58:43.890Z,96711.31
2022-08-02T01:01:12.151Z,96693.06
2022-08-02T01:03:40.453Z,96694.91
2022-08-02T01:06:11.430Z,96666.66
2022-08-02T01:08:40.551Z,96675.06
2022-08-02T01:11:10.150Z,96675.66
2022-08-02T01:13:38.435Z,96648.03
2022-08-02T01:16:16.069Z,96707.03
2022-08-02T01:18:50.311Z,96681.00
2022-08-02T01:21:54.437Z,96682.06
2022-08-02T01:24:49.427Z,96744.06
2022-08-02T01:27:35.155Z,96640.28
2022-08-02T01:30:11.417Z,96689.22
2022-08-02T01:32:52.098Z,97045.41
2022-08-02T01:35:28.247Z,96622.88
2022-08-02T01:38:00.286Z,96698.00
2022-08-02T01:40:32.191Z,96708.84
2022-08-02T01:43:01.940Z,96693.28
2022-08-02T01:45:36.889Z,96722.16
2022-08-02T01:48:07.140Z,96712.53
2022-08-02T01:50:38.429Z,96689.78
2022-08-02T01:53:09.826Z,96705.31
2022-08-02T01:55:58.183Z,96714.91
2022-08-02T01:58:31.420Z,96705.91
2022-08-02T02:01:02.158Z,96720.63
2022-08-02T02:03:33.714Z,96715.13
2022-08-02T02:06:05.488Z,96688.34
2022-08-02T02:08:38.362Z,96572.63
2022-08-02T02:12:05.820Z,96643.16
2022-08-02T02:13:59.266Z,96740.72
2022-08-02T02:16:31.982Z,96697.72
2022-08-02T02:19:07.153Z,96688.09
2022-08-02T02:21:35.401Z,96718.75
2022-08-02T02:24:08.264Z,96708.31
2022-08-02T02:26:52.043Z,96725.66
2022-08-02T02:29:22.947Z,96676.28
2022-08-02T02:31:56.063Z,96670.56
2022-08-02T02:34:29.688Z,96700.28
2022-08-02T02:37:03.003Z,96730.06
2022-08-02T02:39:33.531Z,96731.88
2022-08-02T02:42:05.230Z,96696.94
2022-08-02T02:44:34.587Z,96735.16
2022-08-02T02:47:04.937Z,96726.59
2022-08-02T02:49:36.260Z,96709.84
2022-08-02T02:52:05.877Z,96775.63
2022-08-02T02:54:35.678Z,96672.22
2022-08-02T02:57:06.986Z,96690.38
2022-08-02T02:59:36.568Z,96746.19
2022-08-02T03:02:15.515Z,96681.53
2022-08-02T03:04:57.101Z,96753.47
2022-08-02T03:07:27.368Z,96714.38
2022-08-02T03:09:56.044Z,96728.91
2022-08-02T03:12:31.334Z,96678.88
2022-08-02T03:15:04.128Z,96643.94
2022-08-02T03:17:41.732Z,96663.50
2022-08-02T03:20:13.568Z,96733.84
2022-08-02T03:22:42.663Z,96713.84
2022-08-02T03:25:12.188Z,96747.91
2022-08-02T03:27:41.257Z,96725.78
2022-08-02T03:30:12.639Z,96665.56
2022-08-02T03:32:45.398Z,96706.72
2022-08-02T03:35:21.283Z,96726.88
2022-08-02T03:37:53.982Z,96694.16
2022-08-02T03:40:23.140Z,96724.56
2022-08-02T03:42:52.144Z,96745.25
2022-08-02T03:45:21.091Z,96716.19
2022-08-02T03:47:51.675Z,96714.84
2022-08-02T03:50:22.896Z,96777.59
2022-08-02T03:52:51.964Z,96737.44
2022-08-02T03:55:20.362Z,96730.59
2022-08-02T03:57:49.308Z,96735.91
2022-08-02T04:00:23.174Z,96733.59
2022-08-02T04:02:53.250Z,96721.19
2022-08-02T04:05:22.160Z,96742.94
2022-08-02T04:08:33.000Z,96710.78
2022-08-02T04:10:54.041Z,96720.13
2022-08-02T04:13:24.845Z,96653.84
2022-08-02T04:16:00.926Z,96769.84
2022-08-02T04:18:38.220Z,96757.59
2022-08-02T04:21:07.532Z,96739.28
2022-08-02T04:23:37.770Z,96755.94
2022-08-02T04:26:08.652Z,96639.28
2022-08-02T04:28:39.912Z,96750.78
2022-08-02T04:31:08.919Z,96730.84
2022-08-02T04:33:39.242Z,96718.59
2022-08-02T04:36:08.633Z,96770.41
2022-08-02T04:38:36.907Z,96741.59
2022-08-02T04:41:05.310Z,96727.94
2022-08-02T04:43:33.524Z,96808.69
2022-08-02T04:46:02.813Z,96751.69
2022-08-02T04:48:31.934Z,96674.94
2022-08-02T04:51:01.950Z,96786.38
2022-08-02T04:53:30.223Z,96813.00
2022-08-02T04:55:58.535Z,96785.19
2022-08-02T04:58:42.006Z,96754.56
2022-08-02T05:01:10.298Z,96800.41
2022-08-02T05:03:38.865Z,96777.94
2022-08-02T05:06:18.657Z,96756.28
2022-08-02T05:08:52.497Z,96793.56
2022-08-02T05:11:22.357Z,96760.44
2022-08-02T05:14:02.502Z,96803.44
2022-08-02T05:16:32.007Z,96796.09
2022-08-02T05:19:01.073Z,96778.47
2022-08-02T05:21:31.355Z,96807.16
2022-08-02T05:23:59.701Z,96758.44
2022-08-02T05:26:27.938Z,96788.31
2022-08-02T05:28:56.239Z,96805.13
2022-08-02T05:31:24.567Z,96746.13
2022-08-02T05:33:52.841Z,96785.88
2022-08-02T05:36:21.597Z,96774.78
2022-08-02T05:38:51.949Z,96730.47
2022-08-02T05:41:21.166Z,96778.34
2022-08-02T05:43:49.606Z,96716.41
2022-08-02T05:46:17.937Z,96758.44
2022-08-02T05:48:46.577Z,96766.44
2022-08-02T05:51:24.265Z,96732.75
2022-08-02T05:54:04.337Z,96761.63
2022-08-02T05:56:38.529Z,96736.75
2022-08-02T05:59:13.720Z,96750.50
2022-08-02T06:01:44.910Z,96724.19
2022-08-02T06:04:24.455Z,96761.69
2022-08-02T06:06:57.061Z,96781.75
2022-08-02T06:09:28.164Z,96759.38
2022-08-02T06:12:02.831Z,96769.38
2022-08-02T06:14:33.865Z,96758.78
2022-08-02T06:17:05.194Z,96767.72
2022-08-02T06:19:47.061Z,96806.25
2022-08-02T06:22:31.642Z,96786.50
2022-08-02T06:25:11.757Z,96755.66
2022-08-02T06:27:56.958Z,96804.41
2022-08-02T06:30:25.560Z,96809.31
2022-08-02T06:32:54.653Z,96766.75
2022-08-02T06:35:23.457Z,96810.94
2022-08-02T06:37:58.806Z,96717.03
2022-08-02T06:40:37.430Z,96779.34
2022-08-02T06:43:13.880Z,96800.50
2022-08-02T06:45:42.273Z,96782.22
2022-08-02T06:48:11.521Z,96790.06
2022-08-02T06:50:42.064Z,96753.72
2022-08-02T06:53:11.797Z,96719.28
2022-08-02T06:55:43.720Z,96778.94
2022-08-02T06:58:13.533Z,96787.50
2022-08-02T07:00:43.814Z,96775.97
2022-08-02T07:03:12.300Z,96777.75
2022-08-02T07:05:41.473Z,96743.16
2022-08-02T07:08:09.829Z,96719.38
2022-08-02T07:10:38.051Z,96753.38
2022-08-02T07:13:07.712Z,96718.25
2022-08-02T07:15:36.032Z,96722.78
2022-08-02T07:18:04.661Z,96769.25
2022-08-02T07:20:33.444Z,96718.06
2022-08-02T07:23:01.657Z,96732.50
2022-08-02T07:26:01.709Z,96689.41
2022-08-02T07:28:24.225Z,96754.56
2022-08-02T07:30:53.027Z,96766.69
2022-08-02T07:33:38.732Z,96785.91
2022-08-02T07:36:09.806Z,96723.72
2022-08-02T07:38:45.729Z,96749.81
2022-08-02T07:41:15.176Z,96746.22
2022-08-02T07:43:44.994Z,96774.41
2022-08-02T07:46:13.287Z,96728.22
2022-08-02T07:48:41.578Z,96787.28
2022-08-02T07:51:12.976Z,96759.50
2022-08-02T07:53:50.869Z,96774.31
2022-08-02T07:56:30.256Z,96760.78
2022-08-02T07:58:59.849Z,96762.06
2022-08-02T08:01:28.171Z,96816.88
2022-08-02T08:03:57.197Z,96794.59
2022-08-02T08:06:29.020Z,96781.13
2022-08-02T08:08:57.619Z,96746.16
2022-08-02T08:11:26.070Z,96745.44
2022-08-02T08:13:54.553Z,96757.50
2022-08-02T08:16:26.205Z,96763.75
2022-08-02T08:18:55.006Z,96731.53
2022-08-02T08:21:23.638Z,96696.81
2022-08-02T08:23:51.954Z,96762.59
2022-08-02T08:26:20.160Z,96784.84
2022-08-02T08:28:48.436Z,96771.53
2022-08-02T08:31:16.868Z,96428.38
2022-08-02T08:33:46.507Z,96804.19
2022-08-02T08:36:16.607Z,96770.41
2022-08-02T08:38:45.067Z,96792.84
2022-08-02T08:41:13.309Z,96739.59
2022-08-02T08:43:41.651Z,96801.84
2022-08-02T08:46:15.173Z,96748.91
2022-08-02T08:48:48.039Z,96786.38
2022-08-02T08:51:20.919Z,96788.88
2022-08-02T08:53:50.799Z,96713.13
2022-08-02T08:56:20.046Z,96805.16
2022-08-02T08:58:48.752Z,96752.34
2022-08-02T09:01:17.747Z,96757.41
2022-08-02T09:03:47.664Z,96761.16
2022-08-02T09:06:16.080Z,96759.75
2022-08-02T09:08:44.648Z,96781.00
2022-08-02T09:11:18.065Z,96722.16
2022-08-02T09:13:53.064Z,96728.91
2022-08-02T09:16:35.236Z,96740.25
2022-08-02T09:19:20.527Z,96769.09
2022-08-02T09:21:51.564Z,96788.88
2022-08-02T09:24:22.471Z,96712.47
2022-08-02T09:26:52.113Z,96733.75
2022-08-02T09:29:24.669Z,96692.88
2022-08-02T09:31:53.569Z,96711.34
2022-08-02T09:34:23.488Z,96771.38
2022-08-02T09:36:54.395Z,96728.47
2022-08-02T09:39:26.433Z,96745.13
2022-08-02T09:42:10.519Z,96731.09
2022-08-02T09:44:39.149Z,96736.53
2022-08-02T09:47:17.574Z,96749.34
2022-08-02T09:49:52.195Z,96751.25
2022-08-02T09:52:37.209Z,96752.56
2022-08-02T09:55:13.041Z,96717.94
2022-08-02T09:57:41.627Z,96734.75
2022-08-02T10:00:15.068Z,96726.34
2022-08-02T10:03:08.249Z,96746.34
2022-08-02T10:05:55.754Z,96760.53
2022-08-02T10:08:26.934Z,96710.81
2022-08-02T10:11:01.364Z,96708.63
2022-08-02T10:13:31.938Z,96679.41
2022-08-02T10:16:00.369Z,96712.06
2022-08-02T10:18:38.699Z,96715.44
2022-08-02T10:21:29.488Z,96708.25
2022-08-02T10:24:06.800Z,96683.06
2022-08-02T10:26:35.918Z,96701.81
2022-08-02T10:29:04.811Z,96694.63
2022-08-02T10:31:40.119Z,96702.91
2022-08-02T10:34:12.720Z,96700.28
2022-08-02T10:36:43.836Z,96717.03
2022-08-02T10:39:12.371Z,96722.44
2022-08-02T10:41:46.235Z,96697.00
2022-08-02T10:44:27.326Z,96715.69
2022-08-02T10:47:26.703Z,96690.28
2022-08-02T10:49:57.208Z,96680.34
2022-08-02T10:52:27.876Z,96694.84
2022-08-02T10:54:59.330Z,96746.97
2022-08-02T10:57:29.555Z,96675.88
2022-08-02T11:00:00.151Z,96684.03
2022-08-02T11:02:38.255Z,96683.59
2022-08-02T11:05:13.929Z,96695.47
2022-08-02T11:07:49.217Z,96693.25
2022-08-02T11:10:38.533Z,96689.97
2022-08-02T11:13:10.823Z,96657.00
2022-08-02T11:16:03.692Z,96675.47
2022-08-02T11:19:07.122Z,96647.88
2022-08-02T11:21:36.669Z,96666.81
2022-08-02T11:24:29.540Z,96629.97
2022-08-02T11:26:58.996Z,96683.22
2022-08-02T11:29:38.986Z,96686.25
2022-08-02T11:32:09.608Z,96680.59
2022-08-02T11:34:41.094Z,96705.38
2022-08-02T11:37:10.295Z,96688.22
2022-08-02T11:39:39.913Z,96684.63
2022-08-02T11:42:09.144Z,96640.53
2022-08-02T11:44:44.742Z,96651.66
2022-08-02T11:47:14.135Z,96686.28
2022-08-02T11:49:44.779Z,96669.50
2022-08-02T11:52:13.262Z,96670.00
2022-08-02T11:54:44.620Z,96607.84
2022-08-02T11:57:22.061Z,96663.28
2022-08-02T11:59:52.760Z,96618.88
2022-08-02T12:02:22.980Z,96662.41
2022-08-02T12:04:58.492Z,96644.97
2022-08-02T12:07:34.265Z,96655.34
2022-08-02T12:10:08.717Z,96604.66
2022-08-02T12:12:50.133Z,96594.91
2022-08-02T12:15:35.142Z,96647.47
2022-08-02T12:18:22.111Z,96596.06
2022-08-02T12:20:50.463Z,96612.09
2022-08-02T12:23:18.804Z,96589.19
2022-08-02T12:26:00.890Z,96608.38
2022-08-02T12:28:29.160Z,96683.56
2022-08-02T12:31:00.372Z,96684.94
2022-08-02T12:33:31.068Z,96669.00
2022-08-02T12:35:59.278Z,96620.44
2022-08-02T12:38:27.605Z,96603.72
2022-08-02T12:40:57.370Z,96635.75
2022-08-02T12:43:26.040Z,96665.00
2022-08-02T12:45:57.478Z,96674.41
2022-08-02T12:48:37.833Z,96646.31
2022-08-02T12:51:56.391Z,96634.09
2022-08-02T12:54:18.018Z,96647.34
2022-08-02T12:56:48.754Z,96549.06
2022-08-02T12:59:17.555Z,96641.19
2022-08-02T13:01:46.640Z,96607.03
2022-08-02T13:04:16.606Z,96610.78
2022-08-02T13:06:45.702Z,96562.78
2022-08-02T13:09:17.340Z,96646.09
2022-08-02T13:11:47.665Z,96636.31
2022-08-02T13:14:16.845Z,96647.59
2022-08-02T13:16:47.084Z,96630.03
2022-08-02T13:19:16.270Z,96618.91
2022-08-02T13:22:02.739Z,96630.75
2022-08-02T13:24:39.942Z,96597.34
2022-08-02T13:27:11.767Z,96625.22
2022-08-02T13:29:40.014Z,96557.06
2022-08-02T13:32:08.370Z,96622.53
2022-08-02T13:34:37.011Z,96630.75
2022-08-02T13:37:05.812Z,96617.75
2022-08-02T13:39:34.078Z,96535.47
2022-08-02T13:42:02.303Z,96618.19
2022-08-02T13:44:31.921Z,96618.84
2022-08-02T13:47:00.328Z,96578.22
2022-08-02T13:49:50.841Z,96586.84
2022-08-02T13:52:17.095Z,96628.88
2022-08-02T13:54:45.647Z,96557.94
2022-08-02T13:57:13.874Z,96603.50
2022-08-02T13:59:58.194Z,96587.47
2022-08-02T14:02:52.319Z,96602.28
2022-08-02T14:05:38.675Z,96604.53
2022-08-02T14:08:13.201Z,96487.28
2022-08-02T14:10:46.432Z,96597.69
2022-08-02T14:13:14.792Z,96569.16
2022-08-02T14:15:44.832Z,96525.31
2022-08-02T14:18:14.740Z,96596.81
2022-08-02T14:20:43.420Z,96571.78
2022-08-02T14:23:11.809Z,96540.06
2022-08-02T14:25:40.181Z,96568.31
2022-08-02T14:28:08.653Z,96517.84
2022-08-02T14:30:37.063Z,96556.69
2022-08-02T14:33:06.704Z,96552.81
2022-08-02T14:35:35.389Z,96569.53
2022-08-02T14:38:03.586Z,96513.75
2022-08-02T14:40:32.333Z,96557.75
2022-08-02T14:43:01.376Z,96532.50
2022-08-02T14:45:40.455Z,96510.84
2022-08-02T14:48:12.405Z,96544.50
2022-08-02T14:50:41.084Z,96547.91
2022-08-02T14:53:12.716Z,96581.41
2022-08-02T14:55:42.786Z,96565.16
2022-08-02T14:58:11.399Z,96567.13
2022-08-02T15:00:41.649Z,96536.88
2022-08-02T15:03:13.861Z,96550.53
2022-08-02T15:05:42.172Z,96529.63
2022-08-02T15:08:10.378Z,96557.25
2022-08-02T15:10:38.652Z,96561.47
2022-08-02T15:13:09.424Z,96564.19
2022-08-02T15:15:43.411Z,96580.59
2022-08-02T15:18:14.899Z,96555.66
2022-08-02T15:20:49.238Z,96546.56
2022-08-02T15:23:37.204Z,96533.13
2022-08-02T15:26:06.078Z,96563.69
2022-08-02T15:28:34.460Z,96508.97
2022-08-02T15:31:02.755Z,96538.28
2022-08-02T15:33:32.366Z,96513.75
2022-08-02T15:36:01.031Z,96560.59
2022-08-02T15:38:29.281Z,96537.22
2022-08-02T15:40:57.566Z,96509.16
2022-08-02T15:43:26.102Z,96561.19
2022-08-02T15:45:54.382Z,96511.13
2022-08-02T15:48:22.860Z,96526.81
2022-08-02T15:50:52.567Z,96523.94
2022-08-02T15:53:20.793Z,96555.09
2022-08-02T15:56:04.046Z,96550.88
2022-08-02T15:58:42.534Z,96515.06
2022-08-02T16:01:13.170Z,96546.69
2022-08-02T16:03:50.592Z,96543.63
2022-08-02T16:06:20.498Z,96547.00
2022-08-02T16:08:53.687Z,96546.69
2022-08-02T16:11:24.424Z,96561.63
2022-08-02T16:13:54.681Z,96578.78
2022-08-02T16:16:24.284Z,96545.16
2022-08-02T16:18:52.661Z,96555.03
2022-08-02T16:21:24.589Z,96571.78
2022-08-02T16:23:58.575Z,96549.47
2022-08-02T16:26:31.605Z,96559.13
2022-08-02T16:29:01.478Z,96558.38
2022-08-02T16:31:30.229Z,96529.66
2022-08-02T16:33:58.479Z,96590.69
2022-08-02T16:36:29.017Z,96562.75
2022-08-02T16:38:58.064Z,96432.75
2022-08-02T16:41:51.873Z,96530.06
2022-08-02T16:44:15.772Z,96548.72
2022-08-02T16:46:45.698Z,96536.34
2022-08-02T16:50:05.217Z,96609.00
2022-08-02T16:52:03.964Z,96498.00
2022-08-02T16:54:32.355Z,96510.44
2022-08-02T16:57:00.616Z,96554.63
2022-08-02T16:59:41.898Z,96524.19
2022-08-02T17:02:17.945Z,96541.06
2022-08-02T17:04:47.499Z,96545.25
2022-08-02T17:08:10.399Z,96505.28
2022-08-02T17:10:09.234Z,96545.38
2022-08-02T17:12:39.808Z,96537.22
2022-08-02T17:16:16.439Z,96505.81
2022-08-02T17:18:00.346Z,96501.97
2022-08-02T17:20:29.117Z,96543.34
2022-08-02T17:23:00.613Z,96524.91
2022-08-02T17:25:31.835Z,96520.09
2022-08-02T17:28:00.480Z,96532.56
2022-08-02T17:30:29.764Z,96622.06
2022-08-02T17:32:59.329Z,96548.28
2022-08-02T17:35:51.997Z,96544.47
2022-08-02T17:38:26.563Z,96572.09
2022-08-02T17:40:55.981Z,96540.41
2022-08-02T17:43:29.183Z,96535.47
2022-08-02T17:46:02.229Z,96562.91
2022-08-02T17:48:54.832Z,96490.41
2022-08-02T17:51:33.224Z,96553.03
2022-08-02T17:54:14.565Z,96457.56
2022-08-02T17:56:48.180Z,96475.84
2022-08-02T17:59:20.604Z,96540.78
2022-08-02T18:01:54.271Z,96522.00
2022-08-02T18:07:17.387Z,96532.88
2022-08-02T18:09:55.131Z,96550.25
2022-08-02T18:12:23.346Z,96523.66
2022-08-02T18:14:52.513Z,96502.00
2022-08-02T18:17:20.838Z,96539.13
2022-08-02T18:19:53.983Z,96558.88
2022-08-02T18:22:33.622Z,96562.69
2022-08-02T18:25:09.554Z,96517.75
2022-08-02T18:27:38.920Z,96588.16
2022-08-02T18:30:09.289Z,96537.75
2022-08-02T18:33:59.212Z,96526.19
2022-08-02T18:35:29.451Z,96546.00
2022-08-02T18:38:03.642Z,96545.75
2022-08-02T18:40:33.906Z,96483.25
2022-08-02T18:43:03.419Z,96558.00
2022-08-02T18:45:36.838Z,96540.47
2022-08-02T18:48:23.959Z,96532.13
2022-08-02T18:50:58.302Z,96549.97
2022-08-02T18:53:28.242Z,96577.53
2022-08-02T18:56:20.130Z,96565.09
2022-08-02T18:58:54.457Z,96502.09
2022-08-02T19:01:33.672Z,96530.97
2022-08-02T19:04:04.744Z,96550.66
2022-08-02T19:06:33.074Z,96575.25
2022-08-02T19:09:11.212Z,96554.53
2022-08-02T19:11:47.327Z,96567.75
2022-08-02T19:14:27.862Z,96527.31
2022-08-02T19:16:57.951Z,96567.34
2022-08-02T19:19:29.124Z,96560.06
2022-08-02T19:22:17.674Z,96582.28
2022-08-02T19:24:47.809Z,96586.44
2022-08-02T19:27:25.585Z,96588.09
2022-08-02T19:29:54.632Z,96525.41
2022-08-02T19:32:42.237Z,96613.03
2022-08-02T19:35:19.630Z,96554.28
2022-08-02T19:38:07.189Z,96561.44
2022-08-02T19:40:35.744Z,96602.53
2022-08-02T19:44:27.559Z,96590.28
2022-08-02T19:45:57.025Z,96585.56
2022-08-02T19:48:26.971Z,96569.94
2022-08-02T19:51:00.474Z,96603.25
2022-08-02T19:53:46.910Z,96583.41
2022-08-02T19:56:21.184Z,96606.25
2022-08-02T19:58:57.624Z,96567.97
2022-08-02T20:01:38.709Z,96558.22
2022-08-02T20:04:13.094Z,96605.97
2022-08-02T20:06:45.936Z,96623.88
2022-08-02T20:09:17.152Z,96604.53
2022-08-02T20:11:54.046Z,96626.53
2022-08-02T20:14:26.857Z,96644.94
2022-08-02T20:16:57.098Z,96626.09
2022-08-02T20:19:29.067Z,96620.34
2022-08-02T20:22:00.335Z,96537.41
2022-08-02T20:24:29.661Z,96605.28
2022-08-02T20:26:59.029Z,96553.75
2022-08-02T20:29:43.427Z,96513.81
2022-08-02T20:32:22.902Z,96607.47
2022-08-02T20:34:52.415Z,96593.41
2022-08-02T20:37:59.497Z,96619.09
2022-08-02T20:40:16.881Z,96621.25
2022-08-02T20:42:47.878Z,96616.22
2022-08-02T20:45:18.085Z,96617.19
2022-08-02T20:47:49.746Z,96579.72
2022-08-02T20:50:38.511Z,96598.25
2022-08-02T20:53:08.149Z,96613.31
2022-08-02T20:55:55.506Z,96611.47
2022-08-02T20:58:27.246Z,96582.81
2022-08-02T21:00:59.776Z,96596.56
2022-08-02T21:03:39.102Z,96626.03
2022-08-02T21:06:09.794Z,96664.50
2022-08-02T21:08:38.202Z,96577.09
2022-08-02T21:11:09.395Z,96599.47
2022-08-02T21:13:46.716Z,96669.69
2022-08-02T21:16:30.635Z,96657.97
2022-08-02T21:19:00.258Z,96630.44
2022-08-02T21:21:29.775Z,96612.81
2022-08-02T21:23:59.168Z,96557.75
2022-08-02T21:26:31.024Z,96570.69
2022-08-02T21:29:03.580Z,96590.44
2022-08-02T21:31:36.108Z,96584.25
2022-08-02T21:34:07.620Z,96575.66
2022-08-02T21:36:51.076Z,96623.94
2022-08-02T21:39:20.396Z,96567.91
2022-08-02T21:41:49.387Z,96544.50
2022-08-02T21:44:19.415Z,96632.56
2022-08-02T21:46:50.966Z,96582.84
2022-08-02T21:49:20.502Z,96600.97
2022-08-02T21:54:39.810Z,96595.13
2022-08-02T21:57:15.608Z,96615.16
2022-08-02T21:59:46.260Z,96586.38
2022-08-02T22:02:31.066Z,96596.16
2022-08-02T22:04:59.426Z,96596.56
2022-08-02T22:07:38.438Z,96601.34
2022-08-02T22:10:09.729Z,96592.53
2022-08-02T22:12:38.098Z,96682.06
2022-08-02T22:15:10.554Z,96600.59
2022-08-02T22:17:53.625Z,96634.31
2022-08-02T22:20:29.142Z,96647.13
2022-08-02T22:22:57.608Z,96617.94
2022-08-02T22:25:31.219Z,96563.59
2022-08-02T22:28:38.404Z,96583.50
2022-08-02T22:30:56.989Z,96620.44
2022-08-02T22:33:47.167Z,96621.63
2022-08-02T22:36:30.356Z,96636.06
2022-08-02T22:38:59.176Z,96615.38
2022-08-02T22:42:02.050Z,96649.81
2022-08-02T22:44:18.418Z,96679.94
2022-08-02T22:46:50.104Z,96672.63
2022-08-02T22:49:38.738Z,96589.53
2022-08-02T22:52:08.761Z,96617.88
2022-08-02T22:54:39.281Z,96630.41
2022-08-02T22:57:11.472Z,96612.97
2022-08-02T22:59:12.445Z,96565.25
2022-08-02T22:59:41.078Z,96634.00
2022-08-02T23:02:10.422Z,96615.69
2022-08-02T23:04:40.213Z,96644.56
2022-08-02T23:07:08.482Z,96606.19
2022-08-02T23:09:36.885Z,96639.19
2022-08-02T23:12:06.150Z,96648.63
2022-08-02T23:14:34.473Z,96677.44
2022-08-02T23:17:20.379Z,96640.38
2022-08-02T23:19:53.068Z,96609.34
2022-08-02T23:22:24.197Z,96626.91
2022-08-02T23:24:59.660Z,96633.13
2022-08-02T23:27:28.196Z,96622.53
2022-08-02T23:29:56.468Z,96637.31
2022-08-02T23:32:26.163Z,96648.84
2022-08-02T23:34:56.675Z,96617.34
2022-08-02T23:37:25.929Z,96636.84
2022-08-02T23:39:54.225Z,96625.16
2022-08-02T23:42:23.398Z,96666.94
2022-08-02T23:44:51.852Z,96612.44
2022-08-02T23:47:20.782Z,96664.06
2022-08-02T23:49:49.328Z,96542.56
2022-08-02T23:52:19.351Z,96594.00
2022-08-02T23:54:47.687Z,96677.22
2022-08-02T23:57:19.783Z,96640.34
2022-08-02T23:59:51.629Z,96680.53
